메인 페이지
METAR-TAF:

METAR-TAF

공항 :

방기 음포코 국제공항

방기, 중앙아프리카공화국

위도: 04-24N, 경도: 018-31E, 고도: 365m

현재 날씨관측

예보는 51분 전, 14:00시(UTC)에 발표되었습니다.
무풍
온도 24°C
습도 94%
기압 1009 hPa
시정 10km 이상
고도 1000ft 상공 구름 보통
고도 3300ft 상공 구름 조금, 적란운.
뇌우

METAR: FEFF 291400Z 00000KT 9999 TS SCT010 FEW033CB 24/23 Q1009 BECMG NSW

시각: 15:51 (14:51 UTC)

예보

예보는 9 시간 51분 전, 05:00시(UTC)에 발표되었습니다.
예보 대상 시간: 29일 06시부터 30일 12시까지 (UTC)
남남서5kt
시정 10km 이상
고도 1000ft 상공 구름 조금
전환 중
29일 07시부터 29일 09시까지 (UTC)
고도 1300ft 상공 구름 많음
전환 중
29일 10시부터 28일 12시까지 (UTC)
고도 2300ft 상공 구름 많음
고도 3300ft 상공 구름 조금, 적란운.
확률 30% :
일시적
29일 14시부터 29일 20시까지 (UTC)
여러 방향의 바람 15kt
시정: 4000m
뇌우, 비
전환 중
29일 21시부터 29일 23시까지 (UTC)
시정 10km 이상
1500m 미만 상공 구름 및 적란운 없음

TAF: FEFF 290500Z 2906/3012 20005KT 9999 FEW010 BECMG 2907/2909 BKN013 BECMG 2910/2812 BKN023 FEW033CB PROB30 TEMPO 2914/2920 VRB15KT 4000 TSRA BECMG 2921/2923 CAVOK

4,000개 이상의 공항 관측 자료 및 예보 (METAR 및 TAF 보고).

지도상에서 검색 가능한 기상관측소가 노란 점과 빨간 점으로 표시되어 있습니다.

기상관측소 명을 보려면 표시 위로 마우스를 이동하세요.

날씨 관측과 예보를 보려면 클릭하세요.

지도 변경 : 확대하려면 엑스 표시가 있는 녹색 버튼, 축소하려면 빼기 표시가 있는 녹색 버튼, 다음 페이지의 지도를 보려면 녹색 화살표를 클릭하세요.


METAR-TAF: